sensor_id;sensor_type;location;lat;lon;timestamp;P1;durP1;ratioP1;P2;durP2;ratioP2
58017;SDS011;43810;50.860;19.226;2022-12-18T00:01:14;48.42;;;18.35;;
58017;SDS011;43810;50.860;19.226;2022-12-18T00:03:43;62.78;;;20.38;;
58017;SDS011;43810;50.860;19.226;2022-12-18T00:06:09;57.90;;;19.80;;
58017;SDS011;43810;50.860;19.226;2022-12-18T00:08:35;55.47;;;17.38;;
58017;SDS011;43810;50.860;19.226;2022-12-18T00:11:04;57.05;;;17.70;;
58017;SDS011;43810;50.860;19.226;2022-12-18T00:13:31;53.15;;;18.08;;
58017;SDS011;43810;50.860;19.226;2022-12-18T00:16:01;50.53;;;19.05;;
58017;SDS011;43810;50.860;19.226;2022-12-18T00:18:28;63.00;;;22.45;;
58017;SDS011;43810;50.860;19.226;2022-12-18T00:20:54;50.53;;;17.40;;
58017;SDS011;43810;50.860;19.226;2022-12-18T00:23:24;60.33;;;18.50;;
58017;SDS011;43810;50.860;19.226;2022-12-18T00:25:50;48.95;;;18.38;;
58017;SDS011;43810;50.860;19.226;2022-12-18T00:28:15;52.45;;;19.90;;
58017;SDS011;43810;50.860;19.226;2022-12-18T00:30:41;56.03;;;19.58;;
58017;SDS011;43810;50.860;19.226;2022-12-18T00:33:07;71.05;;;24.13;;
58017;SDS011;43810;50.860;19.226;2022-12-18T00:35:33;68.93;;;22.83;;
58017;SDS011;43810;50.860;19.226;2022-12-18T00:37:59;53.90;;;20.45;;
58017;SDS011;43810;50.860;19.226;2022-12-18T00:40:24;59.50;;;19.63;;
58017;SDS011;43810;50.860;19.226;2022-12-18T00:42:50;61.10;;;19.40;;
58017;SDS011;43810;50.860;19.226;2022-12-18T00:45:23;50.83;;;20.13;;
58017;SDS011;43810;50.860;19.226;2022-12-18T00:47:53;62.20;;;20.40;;
58017;SDS011;43810;50.860;19.226;2022-12-18T00:50:20;55.17;;;22.05;;
58017;SDS011;43810;50.860;19.226;2022-12-18T00:52:46;56.13;;;20.80;;
58017;SDS011;43810;50.860;19.226;2022-12-18T00:55:12;54.83;;;18.20;;
58017;SDS011;43810;50.860;19.226;2022-12-18T00:57:39;60.47;;;21.20;;
58017;SDS011;43810;50.860;19.226;2022-12-18T01:00:07;58.85;;;20.25;;
58017;SDS011;43810;50.860;19.226;2022-12-18T01:02:35;59.03;;;20.88;;
58017;SDS011;43810;50.860;19.226;2022-12-18T01:05:01;57.30;;;19.58;;
58017;SDS011;43810;50.860;19.226;2022-12-18T01:07:27;59.33;;;19.75;;
58017;SDS011;43810;50.860;19.226;2022-12-18T01:09:53;63.25;;;21.25;;
58017;SDS011;43810;50.860;19.226;2022-12-18T01:12:19;65.22;;;20.95;;
58017;SDS011;43810;50.860;19.226;2022-12-18T01:14:47;62.65;;;21.73;;
58017;SDS011;43810;50.860;19.226;2022-12-18T01:17:30;59.33;;;20.75;;
58017;SDS011;43810;50.860;19.226;2022-12-18T01:20:04;61.88;;;21.48;;
58017;SDS011;43810;50.860;19.226;2022-12-18T01:22:34;77.88;;;22.48;;
58017;SDS011;43810;50.860;19.226;2022-12-18T01:25:01;57.83;;;20.08;;
58017;SDS011;43810;50.860;19.226;2022-12-18T01:27:27;62.47;;;20.75;;
58017;SDS011;43810;50.860;19.226;2022-12-18T01:29:52;56.22;;;20.17;;
58017;SDS011;43810;50.860;19.226;2022-12-18T01:32:18;60.22;;;20.33;;
58017;SDS011;43810;50.860;19.226;2022-12-18T01:34:44;60.00;;;21.05;;
58017;SDS011;43810;50.860;19.226;2022-12-18T01:37:10;54.80;;;19.23;;
58017;SDS011;43810;50.860;19.226;2022-12-18T01:39:36;61.50;;;19.67;;
58017;SDS011;43810;50.860;19.226;2022-12-18T01:42:09;53.55;;;20.33;;
58017;SDS011;43810;50.860;19.226;2022-12-18T01:47:24;62.28;;;18.92;;
58017;SDS011;43810;50.860;19.226;2022-12-18T01:49:58;55.47;;;19.67;;
58017;SDS011;43810;50.860;19.226;2022-12-18T01:52:28;62.95;;;20.65;;
58017;SDS011;43810;50.860;19.226;2022-12-18T01:54:56;59.72;;;20.38;;
58017;SDS011;43810;50.860;19.226;2022-12-18T01:57:23;57.00;;;19.10;;
58017;SDS011;43810;50.860;19.226;2022-12-18T01:59:50;62.10;;;19.42;;
58017;SDS011;43810;50.860;19.226;2022-12-18T02:02:18;60.00;;;18.80;;
58017;SDS011;43810;50.860;19.226;2022-12-18T02:04:46;70.28;;;23.23;;
58017;SDS011;43810;50.860;19.226;2022-12-18T02:10:27;63.75;;;19.55;;
58017;SDS011;43810;50.860;19.226;2022-12-18T02:15:26;50.28;;;18.02;;
58017;SDS011;43810;50.860;19.226;2022-12-18T02:17:58;48.10;;;17.13;;
58017;SDS011;43810;50.860;19.226;2022-12-18T02:26:19;51.05;;;17.48;;
58017;SDS011;43810;50.860;19.226;2022-12-18T02:31:24;51.75;;;16.88;;
58017;SDS011;43810;50.860;19.226;2022-12-18T02:33:53;50.78;;;18.40;;
58017;SDS011;43810;50.860;19.226;2022-12-18T02:36:22;62.20;;;18.83;;
58017;SDS011;43810;50.860;19.226;2022-12-18T02:38:48;51.55;;;18.38;;
58017;SDS011;43810;50.860;19.226;2022-12-18T02:41:17;46.47;;;19.40;;
58017;SDS011;43810;50.860;19.226;2022-12-18T02:43:47;70.20;;;20.88;;
58017;SDS011;43810;50.860;19.226;2022-12-18T02:46:48;51.45;;;16.85;;
58017;SDS011;43810;50.860;19.226;2022-12-18T02:52:10;58.85;;;19.35;;
58017;SDS011;43810;50.860;19.226;2022-12-18T03:00:29;56.90;;;21.10;;
58017;SDS011;43810;50.860;19.226;2022-12-18T03:05:38;62.10;;;20.95;;
58017;SDS011;43810;50.860;19.226;2022-12-18T03:08:22;59.45;;;20.63;;
58017;SDS011;43810;50.860;19.226;2022-12-18T03:10:54;58.13;;;19.95;;
58017;SDS011;43810;50.860;19.226;2022-12-18T03:13:32;56.53;;;17.38;;
58017;SDS011;43810;50.860;19.226;2022-12-18T03:16:01;63.88;;;18.08;;
58017;SDS011;43810;50.860;19.226;2022-12-18T03:18:38;53.75;;;18.55;;
58017;SDS011;43810;50.860;19.226;2022-12-18T03:21:06;58.45;;;18.65;;
58017;SDS011;43810;50.860;19.226;2022-12-18T03:23:35;57.25;;;20.13;;
58017;SDS011;43810;50.860;19.226;2022-12-18T03:26:06;55.10;;;18.75;;
58017;SDS011;43810;50.860;19.226;2022-12-18T03:28:37;53.75;;;19.00;;
58017;SDS011;43810;50.860;19.226;2022-12-18T03:31:07;54.97;;;20.05;;
58017;SDS011;43810;50.860;19.226;2022-12-18T03:33:47;54.88;;;20.88;;
58017;SDS011;43810;50.860;19.226;2022-12-18T03:36:18;61.47;;;20.98;;
58017;SDS011;43810;50.860;19.226;2022-12-18T03:38:44;56.42;;;20.65;;
58017;SDS011;43810;50.860;19.226;2022-12-18T03:46:06;82.43;;;22.23;;
58017;SDS011;43810;50.860;19.226;2022-12-18T03:48:41;74.00;;;21.67;;
58017;SDS011;43810;50.860;19.226;2022-12-18T03:51:15;62.10;;;20.38;;
58017;SDS011;43810;50.860;19.226;2022-12-18T03:53:55;44.75;;;18.05;;
58017;SDS011;43810;50.860;19.226;2022-12-18T03:56:26;50.83;;;18.75;;
58017;SDS011;43810;50.860;19.226;2022-12-18T03:58:55;48.65;;;19.42;;
58017;SDS011;43810;50.860;19.226;2022-12-18T04:01:24;60.67;;;19.63;;
58017;SDS011;43810;50.860;19.226;2022-12-18T04:03:56;55.67;;;17.15;;
58017;SDS011;43810;50.860;19.226;2022-12-18T04:06:25;51.03;;;18.17;;
58017;SDS011;43810;50.860;19.226;2022-12-18T04:08:53;46.88;;;14.93;;
58017;SDS011;43810;50.860;19.226;2022-12-18T04:11:19;51.80;;;18.60;;
58017;SDS011;43810;50.860;19.226;2022-12-18T04:13:45;46.10;;;15.02;;
58017;SDS011;43810;50.860;19.226;2022-12-18T04:16:10;43.35;;;16.35;;
58017;SDS011;43810;50.860;19.226;2022-12-18T04:18:36;42.80;;;13.90;;
58017;SDS011;43810;50.860;19.226;2022-12-18T04:21:02;44.92;;;15.88;;
58017;SDS011;43810;50.860;19.226;2022-12-18T04:23:28;55.80;;;16.10;;
58017;SDS011;43810;50.860;19.226;2022-12-18T04:25:54;41.15;;;15.13;;
58017;SDS011;43810;50.860;19.226;2022-12-18T04:28:20;52.15;;;16.17;;
58017;SDS011;43810;50.860;19.226;2022-12-18T04:30:46;47.65;;;17.45;;
58017;SDS011;43810;50.860;19.226;2022-12-18T04:33:12;38.60;;;15.10;;
58017;SDS011;43810;50.860;19.226;2022-12-18T04:35:41;47.95;;;16.25;;
58017;SDS011;43810;50.860;19.226;2022-12-18T04:38:07;49.15;;;16.00;;
58017;SDS011;43810;50.860;19.226;2022-12-18T04:40:34;42.55;;;15.65;;
58017;SDS011;43810;50.860;19.226;2022-12-18T04:43:00;52.83;;;17.23;;
58017;SDS011;43810;50.860;19.226;2022-12-18T04:45:25;51.33;;;17.70;;
58017;SDS011;43810;50.860;19.226;2022-12-18T04:47:51;44.15;;;16.95;;
58017;SDS011;43810;50.860;19.226;2022-12-18T04:50:17;53.72;;;20.10;;
58017;SDS011;43810;50.860;19.226;2022-12-18T04:52:43;58.00;;;18.58;;
58017;SDS011;43810;50.860;19.226;2022-12-18T04:55:09;61.17;;;19.77;;
58017;SDS011;43810;50.860;19.226;2022-12-18T04:57:35;58.28;;;21.58;;
58017;SDS011;43810;50.860;19.226;2022-12-18T05:00:00;64.75;;;21.90;;
58017;SDS011;43810;50.860;19.226;2022-12-18T05:02:26;54.05;;;20.05;;
58017;SDS011;43810;50.860;19.226;2022-12-18T05:04:52;49.67;;;15.82;;
58017;SDS011;43810;50.860;19.226;2022-12-18T05:07:18;60.20;;;19.45;;
58017;SDS011;43810;50.860;19.226;2022-12-18T05:09:43;66.72;;;21.98;;
58017;SDS011;43810;50.860;19.226;2022-12-18T05:12:09;51.92;;;17.88;;
58017;SDS011;43810;50.860;19.226;2022-12-18T05:14:35;59.10;;;18.75;;
58017;SDS011;43810;50.860;19.226;2022-12-18T05:17:01;60.20;;;20.85;;
58017;SDS011;43810;50.860;19.226;2022-12-18T05:19:26;46.88;;;15.52;;
58017;SDS011;43810;50.860;19.226;2022-12-18T05:21:52;42.03;;;16.08;;
58017;SDS011;43810;50.860;19.226;2022-12-18T05:24:18;50.42;;;18.40;;
58017;SDS011;43810;50.860;19.226;2022-12-18T05:26:44;47.33;;;13.95;;
58017;SDS011;43810;50.860;19.226;2022-12-18T05:29:09;46.47;;;16.90;;
58017;SDS011;43810;50.860;19.226;2022-12-18T05:31:38;45.72;;;14.95;;
58017;SDS011;43810;50.860;19.226;2022-12-18T05:34:04;50.13;;;14.73;;
58017;SDS011;43810;50.860;19.226;2022-12-18T05:36:30;55.92;;;16.98;;
58017;SDS011;43810;50.860;19.226;2022-12-18T05:38:56;40.00;;;13.73;;
58017;SDS011;43810;50.860;19.226;2022-12-18T05:41:22;45.72;;;15.27;;
58017;SDS011;43810;50.860;19.226;2022-12-18T05:43:48;41.85;;;13.95;;
58017;SDS011;43810;50.860;19.226;2022-12-18T05:46:15;39.42;;;13.05;;
58017;SDS011;43810;50.860;19.226;2022-12-18T05:48:43;42.42;;;13.88;;
58017;SDS011;43810;50.860;19.226;2022-12-18T05:51:11;43.90;;;15.55;;
58017;SDS011;43810;50.860;19.226;2022-12-18T05:53:41;48.22;;;14.68;;
58017;SDS011;43810;50.860;19.226;2022-12-18T05:56:08;43.20;;;15.60;;
58017;SDS011;43810;50.860;19.226;2022-12-18T05:58:38;48.20;;;14.85;;
58017;SDS011;43810;50.860;19.226;2022-12-18T06:01:08;46.70;;;13.68;;
58017;SDS011;43810;50.860;19.226;2022-12-18T06:03:42;50.40;;;15.07;;
58017;SDS011;43810;50.860;19.226;2022-12-18T06:06:15;44.25;;;14.63;;
58017;SDS011;43810;50.860;19.226;2022-12-18T06:08:45;43.97;;;15.18;;
58017;SDS011;43810;50.860;19.226;2022-12-18T06:11:15;41.10;;;15.23;;
58017;SDS011;43810;50.860;19.226;2022-12-18T06:13:43;42.80;;;13.50;;
58017;SDS011;43810;50.860;19.226;2022-12-18T06:16:09;50.17;;;15.27;;
58017;SDS011;43810;50.860;19.226;2022-12-18T06:18:35;40.92;;;14.48;;
58017;SDS011;43810;50.860;19.226;2022-12-18T06:21:01;40.80;;;12.57;;
58017;SDS011;43810;50.860;19.226;2022-12-18T06:23:27;45.45;;;13.68;;
58017;SDS011;43810;50.860;19.226;2022-12-18T06:25:53;43.80;;;15.90;;
58017;SDS011;43810;50.860;19.226;2022-12-18T06:28:19;50.65;;;16.58;;
58017;SDS011;43810;50.860;19.226;2022-12-18T06:30:46;44.50;;;16.83;;
58017;SDS011;43810;50.860;19.226;2022-12-18T06:33:13;42.97;;;16.10;;
58017;SDS011;43810;50.860;19.226;2022-12-18T06:35:40;48.95;;;15.30;;
58017;SDS011;43810;50.860;19.226;2022-12-18T06:38:06;39.60;;;14.38;;
58017;SDS011;43810;50.860;19.226;2022-12-18T06:40:32;46.28;;;14.15;;
58017;SDS011;43810;50.860;19.226;2022-12-18T06:42:58;48.63;;;16.20;;
58017;SDS011;43810;50.860;19.226;2022-12-18T06:45:25;38.60;;;13.30;;
58017;SDS011;43810;50.860;19.226;2022-12-18T06:47:50;48.05;;;16.05;;
58017;SDS011;43810;50.860;19.226;2022-12-18T06:50:17;45.03;;;15.77;;
58017;SDS011;43810;50.860;19.226;2022-12-18T06:52:42;46.17;;;15.10;;
58017;SDS011;43810;50.860;19.226;2022-12-18T06:55:10;53.58;;;17.17;;
58017;SDS011;43810;50.860;19.226;2022-12-18T06:57:36;53.00;;;16.92;;
58017;SDS011;43810;50.860;19.226;2022-12-18T07:00:03;38.50;;;15.57;;
58017;SDS011;43810;50.860;19.226;2022-12-18T07:02:31;39.55;;;15.35;;
58017;SDS011;43810;50.860;19.226;2022-12-18T07:04:57;41.30;;;14.55;;
58017;SDS011;43810;50.860;19.226;2022-12-18T07:07:22;56.25;;;16.33;;
58017;SDS011;43810;50.860;19.226;2022-12-18T07:09:51;35.90;;;15.50;;
58017;SDS011;43810;50.860;19.226;2022-12-18T07:12:17;47.83;;;15.43;;
58017;SDS011;43810;50.860;19.226;2022-12-18T07:14:44;52.40;;;16.73;;
58017;SDS011;43810;50.860;19.226;2022-12-18T07:17:10;57.17;;;18.15;;
58017;SDS011;43810;50.860;19.226;2022-12-18T07:19:38;55.80;;;17.85;;
58017;SDS011;43810;50.860;19.226;2022-12-18T07:22:11;51.53;;;16.98;;
58017;SDS011;43810;50.860;19.226;2022-12-18T07:24:37;38.10;;;13.13;;
58017;SDS011;43810;50.860;19.226;2022-12-18T07:27:02;41.75;;;14.25;;
58017;SDS011;43810;50.860;19.226;2022-12-18T07:29:28;37.60;;;13.15;;
58017;SDS011;43810;50.860;19.226;2022-12-18T07:31:54;34.88;;;11.95;;
58017;SDS011;43810;50.860;19.226;2022-12-18T07:34:20;44.88;;;14.68;;
58017;SDS011;43810;50.860;19.226;2022-12-18T07:36:45;44.65;;;15.38;;
58017;SDS011;43810;50.860;19.226;2022-12-18T07:39:11;44.75;;;14.52;;
58017;SDS011;43810;50.860;19.226;2022-12-18T07:41:37;42.25;;;13.27;;
58017;SDS011;43810;50.860;19.226;2022-12-18T07:44:03;35.90;;;13.55;;
58017;SDS011;43810;50.860;19.226;2022-12-18T07:46:29;51.25;;;16.88;;
58017;SDS011;43810;50.860;19.226;2022-12-18T07:48:55;42.58;;;15.65;;
58017;SDS011;43810;50.860;19.226;2022-12-18T07:51:20;39.92;;;14.15;;
58017;SDS011;43810;50.860;19.226;2022-12-18T07:53:46;34.83;;;13.00;;
58017;SDS011;43810;50.860;19.226;2022-12-18T07:56:12;38.10;;;12.40;;
58017;SDS011;43810;50.860;19.226;2022-12-18T07:58:38;45.55;;;13.75;;
58017;SDS011;43810;50.860;19.226;2022-12-18T08:01:08;38.72;;;13.80;;
58017;SDS011;43810;50.860;19.226;2022-12-18T08:03:36;34.88;;;13.60;;
58017;SDS011;43810;50.860;19.226;2022-12-18T08:06:03;38.92;;;13.15;;
58017;SDS011;43810;50.860;19.226;2022-12-18T08:08:32;39.15;;;14.95;;
58017;SDS011;43810;50.860;19.226;2022-12-18T08:10:58;37.33;;;14.23;;
58017;SDS011;43810;50.860;19.226;2022-12-18T08:13:25;40.97;;;13.13;;
58017;SDS011;43810;50.860;19.226;2022-12-18T08:16:01;35.67;;;13.25;;
58017;SDS011;43810;50.860;19.226;2022-12-18T08:18:34;35.83;;;11.57;;
58017;SDS011;43810;50.860;19.226;2022-12-18T08:21:11;36.53;;;12.50;;
58017;SDS011;43810;50.860;19.226;2022-12-18T08:23:46;36.40;;;12.38;;
58017;SDS011;43810;50.860;19.226;2022-12-18T08:26:12;35.95;;;13.07;;
58017;SDS011;43810;50.860;19.226;2022-12-18T08:28:38;36.88;;;13.35;;
58017;SDS011;43810;50.860;19.226;2022-12-18T08:31:04;34.47;;;11.60;;
58017;SDS011;43810;50.860;19.226;2022-12-18T08:33:31;38.30;;;13.23;;
58017;SDS011;43810;50.860;19.226;2022-12-18T08:36:01;35.00;;;13.60;;
58017;SDS011;43810;50.860;19.226;2022-12-18T08:38:28;54.33;;;17.73;;
58017;SDS011;43810;50.860;19.226;2022-12-18T08:41:06;54.85;;;19.35;;
58017;SDS011;43810;50.860;19.226;2022-12-18T08:43:35;53.50;;;18.58;;
58017;SDS011;43810;50.860;19.226;2022-12-18T08:46:19;55.95;;;18.17;;
58017;SDS011;43810;50.860;19.226;2022-12-18T08:48:46;59.15;;;20.42;;
58017;SDS011;43810;50.860;19.226;2022-12-18T08:51:12;37.88;;;15.25;;
58017;SDS011;43810;50.860;19.226;2022-12-18T08:53:41;31.85;;;13.65;;
58017;SDS011;43810;50.860;19.226;2022-12-18T08:56:07;46.67;;;17.75;;
58017;SDS011;43810;50.860;19.226;2022-12-18T08:58:33;49.22;;;17.40;;
58017;SDS011;43810;50.860;19.226;2022-12-18T09:01:03;49.28;;;18.65;;
58017;SDS011;43810;50.860;19.226;2022-12-18T09:03:30;43.78;;;17.65;;
58017;SDS011;43810;50.860;19.226;2022-12-18T09:05:56;48.67;;;14.52;;
58017;SDS011;43810;50.860;19.226;2022-12-18T09:08:22;47.15;;;15.55;;
58017;SDS011;43810;50.860;19.226;2022-12-18T09:10:49;40.90;;;14.32;;
58017;SDS011;43810;50.860;19.226;2022-12-18T09:13:15;43.78;;;16.00;;
58017;SDS011;43810;50.860;19.226;2022-12-18T09:15:43;46.63;;;15.93;;
58017;SDS011;43810;50.860;19.226;2022-12-18T09:18:11;42.90;;;14.57;;
58017;SDS011;43810;50.860;19.226;2022-12-18T09:20:37;37.92;;;15.25;;
58017;SDS011;43810;50.860;19.226;2022-12-18T09:23:04;37.67;;;12.70;;
58017;SDS011;43810;50.860;19.226;2022-12-18T09:25:30;33.35;;;14.15;;
58017;SDS011;43810;50.860;19.226;2022-12-18T09:28:05;46.63;;;15.32;;
58017;SDS011;43810;50.860;19.226;2022-12-18T09:30:37;49.60;;;17.00;;
58017;SDS011;43810;50.860;19.226;2022-12-18T09:33:07;50.17;;;15.45;;
58017;SDS011;43810;50.860;19.226;2022-12-18T09:35:35;39.80;;;15.20;;
58017;SDS011;43810;50.860;19.226;2022-12-18T09:38:04;44.45;;;16.30;;
58017;SDS011;43810;50.860;19.226;2022-12-18T09:40:40;44.15;;;15.88;;
58017;SDS011;43810;50.860;19.226;2022-12-18T09:43:13;49.22;;;16.85;;
58017;SDS011;43810;50.860;19.226;2022-12-18T09:45:44;49.63;;;18.38;;
58017;SDS011;43810;50.860;19.226;2022-12-18T09:48:17;50.03;;;17.73;;
58017;SDS011;43810;50.860;19.226;2022-12-18T09:50:47;53.53;;;16.55;;
58017;SDS011;43810;50.860;19.226;2022-12-18T09:53:17;56.33;;;19.52;;
58017;SDS011;43810;50.860;19.226;2022-12-18T09:55:47;62.03;;;19.55;;
58017;SDS011;43810;50.860;19.226;2022-12-18T09:58:20;60.13;;;20.05;;
58017;SDS011;43810;50.860;19.226;2022-12-18T10:00:53;39.72;;;15.27;;
58017;SDS011;43810;50.860;19.226;2022-12-18T10:03:20;37.75;;;14.15;;
58017;SDS011;43810;50.860;19.226;2022-12-18T10:08:42;32.38;;;13.57;;
58017;SDS011;43810;50.860;19.226;2022-12-18T10:13:53;42.20;;;12.88;;
58017;SDS011;43810;50.860;19.226;2022-12-18T10:21:58;34.28;;;13.88;;
58017;SDS011;43810;50.860;19.226;2022-12-18T10:27:50;41.90;;;14.45;;
58017;SDS011;43810;50.860;19.226;2022-12-18T10:30:21;48.78;;;15.07;;
58017;SDS011;43810;50.860;19.226;2022-12-18T10:32:48;52.40;;;16.35;;
58017;SDS011;43810;50.860;19.226;2022-12-18T10:35:19;39.53;;;15.70;;
58017;SDS011;43810;50.860;19.226;2022-12-18T10:38:03;46.05;;;15.07;;
58017;SDS011;43810;50.860;19.226;2022-12-18T10:43:21;35.95;;;13.48;;
58017;SDS011;43810;50.860;19.226;2022-12-18T10:46:11;55.00;;;19.63;;
58017;SDS011;43810;50.860;19.226;2022-12-18T10:51:24;51.90;;;19.40;;
58017;SDS011;43810;50.860;19.226;2022-12-18T10:54:00;52.17;;;17.02;;
58017;SDS011;43810;50.860;19.226;2022-12-18T10:56:32;53.08;;;18.92;;
58017;SDS011;43810;50.860;19.226;2022-12-18T10:59:04;69.90;;;22.35;;
58017;SDS011;43810;50.860;19.226;2022-12-18T11:01:47;66.57;;;23.45;;
58017;SDS011;43810;50.860;19.226;2022-12-18T11:04:32;62.03;;;20.27;;
58017;SDS011;43810;50.860;19.226;2022-12-18T11:09:29;57.67;;;18.90;;
58017;SDS011;43810;50.860;19.226;2022-12-18T11:11:58;43.30;;;17.38;;
58017;SDS011;43810;50.860;19.226;2022-12-18T11:17:19;56.47;;;17.67;;
58017;SDS011;43810;50.860;19.226;2022-12-18T11:19:57;43.60;;;15.20;;
58017;SDS011;43810;50.860;19.226;2022-12-18T11:22:28;43.05;;;16.10;;
58017;SDS011;43810;50.860;19.226;2022-12-18T11:27:33;49.08;;;15.23;;
58017;SDS011;43810;50.860;19.226;2022-12-18T11:30:09;42.38;;;16.27;;
58017;SDS011;43810;50.860;19.226;2022-12-18T11:35:51;53.78;;;18.40;;
58017;SDS011;43810;50.860;19.226;2022-12-18T11:38:32;49.97;;;16.40;;
58017;SDS011;43810;50.860;19.226;2022-12-18T11:41:04;52.35;;;16.13;;
58017;SDS011;43810;50.860;19.226;2022-12-18T11:46:39;45.80;;;17.45;;
58017;SDS011;43810;50.860;19.226;2022-12-18T11:49:20;54.03;;;18.33;;
58017;SDS011;43810;50.860;19.226;2022-12-18T11:52:35;46.05;;;18.50;;
58017;SDS011;43810;50.860;19.226;2022-12-18T11:55:07;50.47;;;18.70;;
58017;SDS011;43810;50.860;19.226;2022-12-18T12:21:41;53.10;;;17.98;;
58017;SDS011;43810;50.860;19.226;2022-12-18T12:24:27;58.65;;;21.90;;
58017;SDS011;43810;50.860;19.226;2022-12-18T12:32:49;50.35;;;20.23;;
58017;SDS011;43810;50.860;19.226;2022-12-18T12:43:57;66.00;;;27.25;;
58017;SDS011;43810;50.860;19.226;2022-12-18T12:46:26;54.38;;;19.27;;
58017;SDS011;43810;50.860;19.226;2022-12-18T12:48:53;50.15;;;20.70;;
58017;SDS011;43810;50.860;19.226;2022-12-18T12:51:22;54.65;;;19.98;;
58017;SDS011;43810;50.860;19.226;2022-12-18T12:53:51;56.83;;;22.67;;
58017;SDS011;43810;50.860;19.226;2022-12-18T12:56:20;70.57;;;23.58;;
58017;SDS011;43810;50.860;19.226;2022-12-18T13:12:53;62.35;;;21.40;;
58017;SDS011;43810;50.860;19.226;2022-12-18T13:15:27;61.53;;;19.30;;
58017;SDS011;43810;50.860;19.226;2022-12-18T13:20:36;62.50;;;23.13;;
58017;SDS011;43810;50.860;19.226;2022-12-18T13:23:44;58.05;;;18.10;;
58017;SDS011;43810;50.860;19.226;2022-12-18T13:34:21;70.68;;;25.50;;
58017;SDS011;43810;50.860;19.226;2022-12-18T13:36:49;56.08;;;23.48;;
58017;SDS011;43810;50.860;19.226;2022-12-18T13:41:45;68.65;;;24.33;;
58017;SDS011;43810;50.860;19.226;2022-12-18T13:44:13;60.10;;;24.60;;
58017;SDS011;43810;50.860;19.226;2022-12-18T13:46:48;57.55;;;24.25;;
58017;SDS011;43810;50.860;19.226;2022-12-18T13:52:13;66.43;;;26.15;;
58017;SDS011;43810;50.860;19.226;2022-12-18T13:54:42;65.07;;;24.27;;
58017;SDS011;43810;50.860;19.226;2022-12-18T13:57:26;66.85;;;25.17;;
58017;SDS011;43810;50.860;19.226;2022-12-18T13:59:54;59.22;;;22.38;;
58017;SDS011;43810;50.860;19.226;2022-12-18T14:02:25;59.92;;;22.67;;
58017;SDS011;43810;50.860;19.226;2022-12-18T14:04:52;64.72;;;22.38;;
58017;SDS011;43810;50.860;19.226;2022-12-18T14:07:21;58.60;;;19.80;;
58017;SDS011;43810;50.860;19.226;2022-12-18T14:09:49;72.13;;;23.50;;
58017;SDS011;43810;50.860;19.226;2022-12-18T14:12:22;66.95;;;24.20;;
58017;SDS011;43810;50.860;19.226;2022-12-18T14:18:00;65.03;;;20.13;;
58017;SDS011;43810;50.860;19.226;2022-12-18T14:20:32;50.92;;;17.48;;
58017;SDS011;43810;50.860;19.226;2022-12-18T14:23:00;59.88;;;17.73;;
58017;SDS011;43810;50.860;19.226;2022-12-18T14:25:30;52.55;;;15.40;;
58017;SDS011;43810;50.860;19.226;2022-12-18T14:30:41;49.75;;;14.85;;
58017;SDS011;43810;50.860;19.226;2022-12-18T14:33:12;45.55;;;15.60;;
58017;SDS011;43810;50.860;19.226;2022-12-18T14:35:40;45.88;;;15.52;;
58017;SDS011;43810;50.860;19.226;2022-12-18T14:38:50;56.83;;;17.33;;
58017;SDS011;43810;50.860;19.226;2022-12-18T14:41:05;54.22;;;19.35;;
58017;SDS011;43810;50.860;19.226;2022-12-18T14:43:36;51.83;;;18.13;;
58017;SDS011;43810;50.860;19.226;2022-12-18T14:46:04;48.85;;;18.17;;
58017;SDS011;43810;50.860;19.226;2022-12-18T14:48:39;52.03;;;17.27;;
58017;SDS011;43810;50.860;19.226;2022-12-18T14:51:12;38.47;;;15.55;;
58017;SDS011;43810;50.860;19.226;2022-12-18T14:53:44;41.03;;;14.57;;
58017;SDS011;43810;50.860;19.226;2022-12-18T14:56:16;36.60;;;14.57;;
58017;SDS011;43810;50.860;19.226;2022-12-18T14:58:49;57.25;;;21.95;;
58017;SDS011;43810;50.860;19.226;2022-12-18T15:01:43;53.75;;;17.92;;
58017;SDS011;43810;50.860;19.226;2022-12-18T15:07:07;54.85;;;17.48;;
58017;SDS011;43810;50.860;19.226;2022-12-18T15:09:44;44.42;;;17.23;;
58017;SDS011;43810;50.860;19.226;2022-12-18T15:12:33;48.88;;;17.75;;
58017;SDS011;43810;50.860;19.226;2022-12-18T15:14:59;41.60;;;15.18;;
58017;SDS011;43810;50.860;19.226;2022-12-18T15:17:25;50.67;;;15.20;;
58017;SDS011;43810;50.860;19.226;2022-12-18T15:19:52;47.58;;;17.38;;
58017;SDS011;43810;50.860;19.226;2022-12-18T15:22:28;49.90;;;17.50;;
58017;SDS011;43810;50.860;19.226;2022-12-18T15:24:56;41.05;;;16.27;;
58017;SDS011;43810;50.860;19.226;2022-12-18T15:32:39;79.82;;;29.75;;
58017;SDS011;43810;50.860;19.226;2022-12-18T15:37:38;68.13;;;20.65;;
58017;SDS011;43810;50.860;19.226;2022-12-18T15:40:05;45.50;;;17.30;;
58017;SDS011;43810;50.860;19.226;2022-12-18T15:42:32;61.08;;;19.08;;
58017;SDS011;43810;50.860;19.226;2022-12-18T15:45:16;48.40;;;15.13;;
58017;SDS011;43810;50.860;19.226;2022-12-18T15:47:42;40.92;;;17.38;;
58017;SDS011;43810;50.860;19.226;2022-12-18T15:50:08;50.40;;;19.10;;
58017;SDS011;43810;50.860;19.226;2022-12-18T15:52:41;54.60;;;23.05;;
58017;SDS011;43810;50.860;19.226;2022-12-18T15:55:12;54.85;;;22.15;;
58017;SDS011;43810;50.860;19.226;2022-12-18T15:57:58;61.08;;;24.02;;
58017;SDS011;43810;50.860;19.226;2022-12-18T16:00:24;71.65;;;23.00;;
58017;SDS011;43810;50.860;19.226;2022-12-18T16:02:50;60.92;;;21.02;;
58017;SDS011;43810;50.860;19.226;2022-12-18T16:05:16;74.15;;;25.20;;
58017;SDS011;43810;50.860;19.226;2022-12-18T16:07:44;61.88;;;24.67;;
58017;SDS011;43810;50.860;19.226;2022-12-18T16:10:10;65.82;;;24.13;;
58017;SDS011;43810;50.860;19.226;2022-12-18T16:12:37;65.68;;;25.75;;
58017;SDS011;43810;50.860;19.226;2022-12-18T16:15:04;73.80;;;28.23;;
58017;SDS011;43810;50.860;19.226;2022-12-18T16:17:30;67.82;;;27.23;;
58017;SDS011;43810;50.860;19.226;2022-12-18T16:19:57;93.68;;;34.47;;
58017;SDS011;43810;50.860;19.226;2022-12-18T16:24:53;80.88;;;30.85;;
58017;SDS011;43810;50.860;19.226;2022-12-18T16:27:20;93.30;;;31.58;;
58017;SDS011;43810;50.860;19.226;2022-12-18T16:29:47;77.35;;;29.90;;
58017;SDS011;43810;50.860;19.226;2022-12-18T16:32:15;90.18;;;32.15;;
58017;SDS011;43810;50.860;19.226;2022-12-18T16:34:42;83.00;;;29.20;;
58017;SDS011;43810;50.860;19.226;2022-12-18T16:37:09;98.75;;;33.17;;
58017;SDS011;43810;50.860;19.226;2022-12-18T16:39:37;71.88;;;33.38;;
58017;SDS011;43810;50.860;19.226;2022-12-18T16:42:04;80.07;;;30.58;;
58017;SDS011;43810;50.860;19.226;2022-12-18T16:44:44;85.45;;;34.35;;
58017;SDS011;43810;50.860;19.226;2022-12-18T16:47:11;104.10;;;36.90;;
58017;SDS011;43810;50.860;19.226;2022-12-18T16:49:38;93.13;;;34.10;;
58017;SDS011;43810;50.860;19.226;2022-12-18T16:52:04;82.32;;;32.38;;
58017;SDS011;43810;50.860;19.226;2022-12-18T16:54:31;93.43;;;35.50;;
58017;SDS011;43810;50.860;19.226;2022-12-18T16:56:59;88.68;;;32.20;;